createdAt,value
2018-08-13T00:00:58.484Z,3.03
2018-08-13T00:03:26.941Z,6.43
2018-08-13T00:05:55.365Z,4.93
2018-08-13T00:08:23.833Z,5.80
2018-08-13T00:10:52.392Z,3.73
2018-08-13T00:13:20.927Z,3.20
2018-08-13T00:15:49.476Z,5.30
2018-08-13T00:18:17.984Z,4.93
2018-08-13T00:20:46.472Z,4.00
2018-08-13T00:23:14.953Z,5.50
2018-08-13T00:25:43.414Z,3.50
2018-08-13T00:28:12.001Z,5.77
2018-08-13T00:30:40.577Z,5.70
2018-08-13T00:33:10.508Z,7.13
2018-08-13T00:35:39.073Z,4.83
2018-08-13T00:38:07.961Z,5.97
2018-08-13T00:40:36.529Z,3.30
2018-08-13T00:43:05.788Z,12.13
2018-08-13T00:45:34.253Z,3.10
2018-08-13T00:48:02.744Z,3.37
2018-08-13T00:50:31.249Z,5.77
2018-08-13T00:52:59.664Z,6.07
2018-08-13T00:55:28.136Z,4.80
2018-08-13T00:57:56.612Z,4.73
2018-08-13T01:00:25.101Z,4.80
2018-08-13T01:02:53.601Z,3.43
2018-08-13T01:05:22.144Z,2.93
2018-08-13T01:07:50.665Z,4.87
2018-08-13T01:10:20.068Z,7.13
2018-08-13T01:12:48.760Z,6.30
2018-08-13T01:15:18.513Z,3.50
2018-08-13T01:17:48.215Z,5.50
2018-08-13T01:20:20.194Z,3.20
2018-08-13T01:22:48.677Z,2.97
2018-08-13T01:25:18.345Z,3.63
2018-08-13T01:27:46.841Z,4.70
2018-08-13T01:30:16.894Z,2.80
2018-08-13T01:32:45.415Z,3.23
2018-08-13T01:35:13.905Z,4.10
2018-08-13T01:37:42.353Z,3.20
2018-08-13T01:40:11.715Z,2.83
2018-08-13T01:42:40.223Z,4.93
2018-08-13T01:45:10.469Z,5.40
2018-08-13T01:47:39.319Z,2.90
2018-08-13T01:50:09.971Z,3.17
2018-08-13T01:52:38.405Z,2.80
2018-08-13T01:55:08.249Z,3.83
2018-08-13T01:57:36.699Z,4.97
2018-08-13T02:00:08.072Z,3.10
2018-08-13T02:02:36.544Z,3.27
2018-08-13T02:05:05.853Z,2.83
2018-08-13T02:07:34.372Z,2.60
2018-08-13T02:10:02.912Z,2.57
2018-08-13T02:12:31.352Z,5.57
2018-08-13T02:14:59.853Z,4.50
2018-08-13T02:17:28.320Z,3.00
2018-08-13T02:19:56.769Z,3.60
2018-08-13T02:22:25.304Z,2.30
2018-08-13T02:24:53.740Z,3.50
2018-08-13T02:27:22.220Z,4.40
2018-08-13T02:29:50.676Z,2.30
2018-08-13T02:32:19.163Z,2.60
2018-08-13T02:34:47.637Z,3.80
2018-08-13T02:37:16.129Z,2.70
2018-08-13T02:39:44.572Z,6.53
2018-08-13T02:42:13.315Z,6.27
2018-08-13T02:44:41.776Z,5.13
2018-08-13T02:47:10.291Z,2.53
2018-08-13T02:49:38.761Z,2.67
2018-08-13T02:52:07.491Z,2.93
2018-08-13T02:54:35.954Z,3.13
2018-08-13T02:57:04.522Z,2.40
2018-08-13T02:59:32.958Z,4.17
2018-08-13T03:02:01.403Z,3.00
2018-08-13T03:04:29.926Z,2.73
2018-08-13T03:06:58.337Z,2.13
2018-08-13T03:09:26.749Z,2.63
2018-08-13T03:11:55.188Z,2.67
2018-08-13T03:14:23.612Z,2.73
2018-08-13T03:16:52.133Z,2.50
2018-08-13T03:19:20.607Z,2.57
2018-08-13T03:21:49.129Z,1.90
2018-08-13T03:24:17.609Z,2.33
2018-08-13T03:26:46.068Z,3.10
2018-08-13T03:29:14.500Z,3.60
2018-08-13T03:31:42.985Z,2.67
2018-08-13T03:34:11.440Z,4.60
2018-08-13T03:36:39.925Z,4.37
2018-08-13T03:39:10.626Z,5.60
2018-08-13T03:41:40.117Z,14.43
2018-08-13T03:44:09.101Z,3.03
2018-08-13T03:46:37.953Z,16.77
2018-08-13T03:49:06.897Z,4.47
2018-08-13T03:51:35.337Z,6.00
2018-08-13T03:54:03.823Z,2.67
2018-08-13T03:56:32.280Z,3.73
2018-08-13T03:59:00.748Z,9.97
2018-08-13T04:01:29.304Z,2.60
2018-08-13T04:03:57.780Z,4.47
2018-08-13T04:06:26.276Z,4.20
2018-08-13T04:08:54.700Z,2.70
2018-08-13T04:11:23.149Z,3.70
2018-08-13T04:13:51.607Z,3.43
2018-08-13T04:16:20.053Z,4.27
2018-08-13T04:18:48.481Z,7.97
2018-08-13T04:21:16.929Z,11.80
2018-08-13T04:23:45.433Z,10.30
2018-08-13T04:26:13.874Z,8.37
2018-08-13T04:28:42.348Z,11.43
2018-08-13T04:31:10.792Z,3.73
2018-08-13T04:33:39.306Z,7.27
2018-08-13T04:36:07.757Z,3.60
2018-08-13T04:38:36.226Z,8.47
2018-08-13T04:41:04.693Z,10.57
2018-08-13T04:43:33.161Z,6.53
2018-08-13T04:46:01.626Z,4.53
2018-08-13T04:48:30.233Z,6.47
2018-08-13T04:50:58.665Z,5.40
2018-08-13T04:53:27.089Z,3.50
2018-08-13T04:55:55.578Z,11.90
2018-08-13T04:58:24.007Z,9.10
2018-08-13T05:00:52.440Z,5.57
2018-08-13T05:03:20.897Z,6.20
2018-08-13T05:05:49.369Z,5.20
2018-08-13T05:08:17.800Z,6.30
2018-08-13T05:10:46.285Z,6.73
2018-08-13T05:13:14.820Z,4.93
2018-08-13T05:15:43.268Z,4.03
2018-08-13T05:18:11.756Z,5.90
2018-08-13T05:20:40.184Z,8.63
2018-08-13T05:23:08.636Z,5.57
2018-08-13T05:25:37.106Z,6.07
2018-08-13T05:28:05.960Z,14.07
2018-08-13T05:30:34.417Z,17.50
2018-08-13T05:33:02.853Z,8.63
2018-08-13T05:35:31.313Z,9.33
2018-08-13T05:37:59.749Z,8.87
2018-08-13T05:40:28.283Z,10.90
2018-08-13T05:42:56.725Z,17.23
2018-08-13T05:45:25.185Z,10.07
2018-08-13T05:47:53.720Z,13.80
2018-08-13T05:50:22.161Z,10.83
2018-08-13T05:52:50.699Z,22.17
2018-08-13T05:55:19.132Z,9.73
2018-08-13T05:57:47.589Z,13.10
2018-08-13T06:00:16.065Z,14.07
2018-08-13T06:02:44.523Z,18.83
2018-08-13T06:05:13.649Z,8.27
2018-08-13T06:07:42.613Z,14.30
2018-08-13T06:10:12.177Z,15.23
2018-08-13T06:12:41.160Z,18.90
2018-08-13T06:15:11.298Z,12.20
2018-08-13T06:17:39.785Z,15.13
2018-08-13T06:20:10.185Z,17.60
2018-08-13T06:22:39.475Z,10.33
2018-08-13T06:25:08.065Z,15.83
2018-08-13T06:27:36.537Z,13.97
2018-08-13T06:30:08.208Z,16.97
2018-08-13T06:32:36.685Z,22.77
2018-08-13T06:35:05.276Z,14.10
2018-08-13T06:37:33.767Z,11.93
2018-08-13T06:40:02.287Z,12.07
2018-08-13T06:42:30.776Z,16.67
2018-08-13T06:44:59.206Z,9.93
2018-08-13T06:47:27.716Z,9.47
2018-08-13T06:49:56.179Z,9.80
2018-08-13T06:52:24.665Z,14.40
2018-08-13T06:54:53.117Z,8.33
2018-08-13T06:57:21.577Z,13.40
2018-08-13T06:59:50.066Z,10.07
2018-08-13T07:02:18.543Z,12.83
2018-08-13T07:04:47.004Z,6.97
2018-08-13T07:07:15.502Z,8.50
2018-08-13T07:09:43.946Z,10.27
2018-08-13T07:12:13.303Z,9.30
2018-08-13T07:14:41.829Z,17.73
2018-08-13T07:17:10.292Z,16.07
2018-08-13T07:19:38.774Z,12.30
2018-08-13T07:22:07.343Z,11.77
2018-08-13T07:24:35.772Z,14.37
2018-08-13T07:27:04.236Z,10.83
2018-08-13T07:29:32.717Z,7.63
2018-08-13T07:32:01.212Z,8.30
2018-08-13T07:34:29.682Z,16.07
2018-08-13T07:36:58.169Z,18.13
2018-08-13T07:39:26.638Z,8.10
2018-08-13T07:41:55.056Z,10.87
2018-08-13T07:44:23.531Z,9.00
2018-08-13T07:46:51.996Z,6.37
2018-08-13T07:49:20.498Z,15.50
2018-08-13T07:51:49.086Z,10.20
2018-08-13T07:54:17.824Z,14.83
2018-08-13T07:56:46.273Z,9.63
2018-08-13T07:59:14.730Z,6.70
2018-08-13T08:01:43.188Z,9.63
2018-08-13T08:04:11.646Z,11.60
2018-08-13T08:06:40.549Z,11.10
2018-08-13T08:09:11.115Z,8.70
2018-08-13T08:11:39.772Z,8.67
2018-08-13T08:14:08.842Z,6.80
2018-08-13T08:16:37.345Z,8.10
2018-08-13T08:19:05.813Z,5.93
2018-08-13T08:21:34.311Z,5.80
2018-08-13T08:24:02.916Z,17.77
2018-08-13T08:26:31.378Z,6.40
2018-08-13T08:28:59.884Z,9.03
2018-08-13T08:31:28.373Z,9.90
2018-08-13T08:33:56.923Z,6.93
2018-08-13T08:36:25.388Z,6.67
2018-08-13T08:38:53.888Z,5.53
2018-08-13T08:41:22.349Z,5.97
2018-08-13T08:43:50.879Z,8.10
2018-08-13T08:46:19.376Z,8.30
2018-08-13T08:48:47.876Z,6.50
2018-08-13T08:51:16.401Z,6.37
2018-08-13T08:53:44.855Z,7.53
2018-08-13T08:56:13.320Z,8.00
2018-08-13T08:58:41.805Z,11.50
2018-08-13T09:01:10.256Z,6.37
2018-08-13T09:03:38.717Z,7.60
2018-08-13T09:06:07.226Z,4.93
2018-08-13T09:08:35.764Z,8.30
2018-08-13T09:11:04.312Z,9.47
2018-08-13T09:13:32.758Z,6.07
2018-08-13T09:16:01.233Z,9.00
2018-08-13T09:18:40.882Z,19.00
2018-08-13T09:21:20.877Z,5.70
2018-08-13T09:24:00.682Z,6.60
2018-08-13T09:26:40.422Z,9.70
2018-08-13T09:29:20.066Z,9.67
2018-08-13T09:32:32.301Z,7.30
2018-08-13T09:35:24.461Z,14.27
2018-08-13T09:37:53.472Z,11.10
2018-08-13T09:40:22.088Z,4.10
2018-08-13T09:42:50.658Z,7.37
2018-08-13T09:45:19.184Z,7.77
2018-08-13T09:47:47.698Z,9.77
2018-08-13T09:50:17.317Z,12.77
2018-08-13T09:52:46.385Z,7.10
2018-08-13T09:55:15.504Z,8.57
2018-08-13T09:57:45.105Z,9.93
2018-08-13T10:00:19.809Z,9.80
2018-08-13T10:02:49.012Z,5.90
2018-08-13T10:05:17.845Z,6.00
2018-08-13T10:07:46.798Z,6.07
2018-08-13T10:10:15.999Z,7.50
2018-08-13T10:12:45.198Z,8.50
2018-08-13T10:15:14.201Z,3.27
2018-08-13T10:17:42.711Z,4.00
2018-08-13T10:20:19.060Z,3.27
2018-08-13T10:22:47.710Z,5.60
2018-08-13T10:25:16.198Z,3.80
2018-08-13T10:27:44.679Z,6.50
2018-08-13T10:30:15.449Z,6.80
2018-08-13T10:32:44.001Z,7.20
2018-08-13T10:35:12.520Z,6.30
2018-08-13T10:37:41.547Z,7.80
2018-08-13T10:40:14.944Z,7.00
2018-08-13T10:42:43.457Z,4.73
2018-08-13T10:45:12.002Z,7.03
2018-08-13T10:47:40.461Z,8.43
2018-08-13T10:50:10.821Z,9.13
2018-08-13T10:52:39.692Z,4.07
2018-08-13T10:55:09.106Z,6.10
2018-08-13T10:57:37.572Z,4.93
2018-08-13T11:00:08.348Z,9.93
2018-08-13T11:02:36.794Z,4.83
2018-08-13T11:05:06.802Z,9.93
2018-08-13T11:07:35.323Z,9.13
2018-08-13T11:10:03.882Z,5.60
2018-08-13T11:12:32.401Z,11.50
2018-08-13T11:15:00.946Z,4.77
2018-08-13T11:17:29.444Z,11.43
2018-08-13T11:19:58.041Z,13.80
2018-08-13T11:22:26.535Z,8.73
2018-08-13T11:24:54.994Z,10.57
2018-08-13T11:27:23.421Z,8.37
2018-08-13T11:29:51.967Z,7.10
2018-08-13T11:32:20.444Z,6.63
2018-08-13T11:34:48.940Z,9.13
2018-08-13T11:37:17.403Z,7.40
2018-08-13T11:39:45.885Z,9.93
2018-08-13T11:42:14.345Z,7.50
2018-08-13T11:44:42.801Z,6.17
2018-08-13T11:47:11.291Z,5.97
2018-08-13T11:49:39.771Z,11.40
2018-08-13T11:52:08.246Z,16.33
2018-08-13T11:54:36.781Z,14.30
2018-08-13T11:57:05.624Z,7.60
2018-08-13T11:59:34.111Z,6.87
2018-08-13T12:02:02.600Z,11.07
2018-08-13T12:04:31.093Z,10.67
2018-08-13T12:06:59.552Z,8.90
2018-08-13T12:09:28.004Z,7.83
2018-08-13T12:11:56.471Z,11.63
2018-08-13T12:14:25.205Z,12.03
2018-08-13T12:16:53.658Z,16.73
2018-08-13T12:19:22.141Z,16.80
2018-08-13T12:21:50.622Z,14.63
2018-08-13T12:24:19.082Z,13.40
2018-08-13T12:26:47.559Z,41.00
2018-08-13T12:29:16.078Z,35.23
2018-08-13T12:31:44.559Z,19.20
2018-08-13T12:34:13.062Z,15.80
2018-08-13T12:36:41.550Z,14.17
2018-08-13T12:39:11.817Z,18.13
2018-08-13T12:41:40.342Z,12.77
2018-08-13T12:44:08.889Z,5.30
2018-08-13T12:46:37.361Z,5.90
2018-08-13T12:49:05.968Z,4.07
2018-08-13T12:51:34.426Z,7.83
2018-08-13T12:54:02.924Z,7.73
2018-08-13T12:56:31.426Z,11.13
2018-08-13T12:58:59.910Z,10.83
2018-08-13T13:01:28.359Z,9.63
2018-08-13T13:03:56.928Z,6.20
2018-08-13T13:06:25.456Z,9.20
2018-08-13T13:08:54.014Z,6.13
2018-08-13T13:11:22.481Z,3.80
2018-08-13T13:13:50.941Z,7.60
2018-08-13T13:16:19.391Z,11.97
2018-08-13T13:18:47.846Z,5.80
2018-08-13T13:21:16.341Z,3.10
2018-08-13T13:23:44.805Z,5.57
2018-08-13T13:26:13.253Z,3.03
2018-08-13T13:28:42.098Z,7.47
2018-08-13T13:31:10.877Z,3.67
2018-08-13T13:33:39.371Z,4.40
2018-08-13T13:36:07.893Z,4.73
2018-08-13T13:38:36.389Z,5.87
2018-08-13T13:41:04.882Z,3.07
2018-08-13T13:43:33.373Z,2.80
2018-08-13T13:46:01.847Z,2.27
2018-08-13T13:48:30.289Z,4.57
2018-08-13T13:50:58.842Z,2.93
2018-08-13T13:53:27.318Z,2.10
2018-08-13T13:55:55.821Z,3.90
2018-08-13T13:58:24.322Z,1.77
2018-08-13T14:00:52.763Z,2.23
2018-08-13T14:03:21.244Z,7.90
2018-08-13T14:05:49.885Z,2.50
2018-08-13T14:08:18.358Z,8.40
2018-08-13T14:10:46.784Z,2.53
2018-08-13T14:13:15.245Z,3.40
2018-08-13T14:15:43.706Z,3.50
2018-08-13T14:18:12.233Z,1.90
2018-08-13T14:20:40.683Z,1.80
2018-08-13T14:23:09.187Z,1.63
2018-08-13T14:25:37.657Z,2.40
2018-08-13T14:28:06.270Z,2.53
2018-08-13T14:30:34.700Z,1.30
2018-08-13T14:33:03.228Z,2.10
2018-08-13T14:35:31.701Z,4.30
2018-08-13T14:38:00.145Z,1.77
2018-08-13T14:40:28.627Z,1.77
2018-08-13T14:42:57.108Z,2.53
2018-08-13T14:45:25.555Z,2.90
2018-08-13T14:47:54.002Z,1.80
2018-08-13T14:50:22.561Z,3.70
2018-08-13T14:52:51.014Z,1.80
2018-08-13T14:55:21.057Z,1.77
2018-08-13T14:57:49.573Z,2.60
2018-08-13T15:00:23.218Z,1.93
2018-08-13T15:02:52.412Z,4.23
2018-08-13T15:05:20.936Z,2.77
2018-08-13T15:07:49.465Z,1.80
2018-08-13T15:10:22.121Z,1.90
2018-08-13T15:12:50.711Z,1.40
2018-08-13T15:15:19.233Z,4.50
2018-08-13T15:17:48.130Z,1.37
2018-08-13T15:20:23.369Z,1.50
2018-08-13T15:22:51.885Z,2.33
2018-08-13T15:25:20.474Z,1.67
2018-08-13T15:27:49.085Z,1.20
2018-08-13T15:30:18.231Z,2.00
2018-08-13T15:32:47.664Z,2.43
2018-08-13T15:35:16.193Z,3.63
2018-08-13T15:37:45.341Z,3.93
2018-08-13T15:40:13.843Z,3.43
2018-08-13T15:42:42.661Z,1.60
2018-08-13T15:45:14.581Z,3.10
2018-08-13T15:47:43.467Z,4.47
2018-08-13T15:50:14.114Z,1.80
2018-08-13T15:52:43.172Z,4.00
2018-08-13T15:55:11.877Z,4.23
2018-08-13T15:57:42.002Z,2.93
2018-08-13T16:00:12.541Z,3.17
2018-08-13T16:02:41.394Z,2.70
2018-08-13T16:05:11.163Z,2.87
2018-08-13T16:07:40.068Z,5.40
2018-08-13T16:10:11.702Z,2.40
2018-08-13T16:12:40.340Z,3.13
2018-08-13T16:15:09.243Z,4.67
2018-08-13T16:17:38.335Z,3.53
2018-08-13T16:20:10.165Z,3.23
2018-08-13T16:22:39.134Z,2.23
2018-08-13T16:25:08.053Z,5.90
2018-08-13T16:27:36.757Z,4.50
2018-08-13T16:30:15.665Z,19.43
2018-08-13T16:32:44.759Z,3.00
2018-08-13T16:35:13.238Z,2.40
2018-08-13T16:37:41.689Z,2.03
2018-08-13T16:40:10.221Z,2.40
2018-08-13T16:42:38.701Z,2.83
2018-08-13T16:45:08.001Z,1.30
2018-08-13T16:47:36.753Z,2.50
2018-08-13T16:50:13.320Z,5.63
2018-08-13T16:52:41.909Z,4.40
2018-08-13T16:55:11.330Z,3.00
2018-08-13T16:57:39.986Z,1.57
2018-08-13T17:00:10.341Z,1.33
2018-08-13T17:02:38.932Z,1.40
2018-08-13T17:05:09.853Z,1.70
2018-08-13T17:07:38.630Z,2.80
2018-08-13T17:10:09.615Z,4.23
2018-08-13T17:12:38.116Z,1.77
2018-08-13T17:15:08.463Z,1.50
2018-08-13T17:17:37.371Z,1.73
2018-08-13T17:20:07.085Z,4.30
2018-08-13T17:22:35.594Z,6.20
2018-08-13T17:25:04.634Z,2.30
2018-08-13T17:27:33.129Z,3.10
2018-08-13T17:30:01.629Z,1.90
2018-08-13T17:32:30.081Z,3.23
2018-08-13T17:34:58.571Z,2.53
2018-08-13T17:37:27.062Z,4.87
2018-08-13T17:39:55.560Z,1.93
2018-08-13T17:42:24.030Z,3.10
2018-08-13T17:44:52.509Z,8.13
2018-08-13T17:47:21.272Z,14.03
2018-08-13T17:49:49.790Z,3.53
2018-08-13T17:52:18.332Z,2.83
2018-08-13T17:54:46.822Z,12.40
2018-08-13T17:57:15.296Z,4.37
2018-08-13T17:59:43.785Z,3.57
2018-08-13T18:02:12.342Z,2.20
2018-08-13T18:04:40.745Z,6.73
2018-08-13T18:07:09.194Z,3.17
2018-08-13T18:09:37.736Z,2.30
2018-08-13T18:12:06.271Z,3.60
2018-08-13T18:14:34.736Z,4.53
2018-08-13T18:17:03.225Z,2.70
2018-08-13T18:19:31.707Z,2.83
2018-08-13T18:22:00.167Z,4.30
2018-08-13T18:24:28.653Z,1.90
2018-08-13T18:26:57.078Z,5.43
2018-08-13T18:29:25.557Z,1.90
2018-08-13T18:31:54.026Z,3.30
2018-08-13T18:34:22.487Z,6.10
2018-08-13T18:36:50.925Z,3.23
2018-08-13T18:39:19.421Z,1.70
2018-08-13T18:41:47.920Z,5.83
2018-08-13T18:44:16.386Z,2.40
2018-08-13T18:46:44.887Z,2.17
2018-08-13T18:49:13.512Z,3.13
2018-08-13T18:51:41.997Z,2.30
2018-08-13T18:54:10.553Z,3.20
2018-08-13T18:56:39.040Z,1.80
2018-08-13T18:59:07.568Z,2.10
2018-08-13T19:01:36.106Z,1.77
2018-08-13T19:04:04.713Z,1.70
2018-08-13T19:06:33.309Z,5.23
2018-08-13T19:09:01.852Z,1.60
2018-08-13T19:11:30.280Z,2.20
2018-08-13T19:13:58.776Z,7.63
2018-08-13T19:16:27.259Z,8.13
2018-08-13T19:18:55.796Z,4.07
2018-08-13T19:21:24.286Z,2.47
2018-08-13T19:23:52.781Z,3.00
2018-08-13T19:26:21.244Z,2.23
2018-08-13T19:28:49.722Z,6.10
2018-08-13T19:31:18.173Z,2.73
2018-08-13T19:33:46.638Z,13.03
2018-08-13T19:36:15.157Z,11.60
2018-08-13T19:38:43.665Z,4.03
2018-08-13T19:41:12.120Z,9.23
2018-08-13T19:43:40.667Z,6.00
2018-08-13T19:46:09.166Z,5.40
2018-08-13T19:48:37.632Z,11.67
2018-08-13T19:51:06.154Z,7.00
2018-08-13T19:53:34.619Z,8.83
2018-08-13T19:56:03.110Z,3.40
2018-08-13T19:58:31.563Z,3.43
2018-08-13T20:01:00.034Z,3.50
2018-08-13T20:03:28.530Z,4.67
2018-08-13T20:05:57.032Z,2.80
2018-08-13T20:08:25.522Z,2.80
2018-08-13T20:10:53.972Z,3.13
2018-08-13T20:13:22.433Z,4.03
2018-08-13T20:15:50.946Z,3.20
2018-08-13T20:18:19.405Z,3.60
2018-08-13T20:20:47.865Z,2.43
2018-08-13T20:23:16.373Z,3.30
2018-08-13T20:25:44.890Z,4.77
2018-08-13T20:28:13.378Z,4.87
2018-08-13T20:30:41.858Z,3.20
2018-08-13T20:33:10.336Z,3.63
2018-08-13T20:35:38.821Z,3.47
2018-08-13T20:38:07.325Z,2.87
2018-08-13T20:40:35.825Z,9.50
2018-08-13T20:43:04.312Z,7.27
2018-08-13T20:45:32.817Z,5.03
2018-08-13T20:48:01.237Z,3.50
2018-08-13T20:50:29.721Z,4.77
2018-08-13T20:52:58.224Z,3.03
2018-08-13T20:55:29.095Z,5.63
2018-08-13T20:58:04.264Z,2.57
2018-08-13T21:00:32.933Z,2.83
2018-08-13T21:04:04.504Z,9.20
2018-08-13T21:06:33.043Z,6.70
2018-08-13T21:09:01.556Z,4.23
2018-08-13T21:11:30.078Z,3.90
2018-08-13T21:13:58.555Z,2.80
2018-08-13T21:16:27.009Z,3.27
2018-08-13T21:18:55.506Z,5.03
2018-08-13T21:21:23.969Z,3.83
2018-08-13T21:23:52.392Z,5.50
2018-08-13T21:26:20.855Z,5.47
2018-08-13T21:28:49.345Z,5.57
2018-08-13T21:31:17.859Z,6.50
2018-08-13T21:33:46.382Z,3.73
2018-08-13T21:36:14.865Z,10.53
2018-08-13T21:38:43.330Z,3.83
2018-08-13T21:41:11.784Z,3.53
2018-08-13T21:43:40.280Z,5.17
2018-08-13T21:46:08.740Z,3.60
2018-08-13T21:48:37.209Z,6.80
2018-08-13T21:51:05.924Z,4.97
2018-08-13T21:53:34.398Z,4.03
2018-08-13T21:56:02.880Z,3.70
2018-08-13T21:58:31.363Z,2.87
2018-08-13T22:02:08.061Z,3.20
2018-08-13T22:04:36.461Z,3.30
2018-08-13T22:07:04.958Z,3.43
2018-08-13T22:09:33.469Z,3.37
2018-08-13T22:12:02.025Z,3.13
2018-08-13T22:14:30.563Z,5.93
2018-08-13T22:16:59.019Z,2.13
2018-08-13T22:19:27.505Z,2.83
2018-08-13T22:21:56.002Z,3.60
2018-08-13T22:24:35.860Z,3.13
2018-08-13T22:27:04.424Z,7.00
2018-08-13T22:29:32.937Z,2.90
2018-08-13T22:32:01.530Z,4.33
2018-08-13T22:34:30.017Z,3.73
2018-08-13T22:36:58.465Z,3.17
2018-08-13T22:39:26.937Z,3.90
2018-08-13T22:41:55.403Z,4.60
2018-08-13T22:44:23.864Z,5.17
2018-08-13T22:46:52.340Z,4.73
2018-08-13T22:49:21.009Z,6.30
2018-08-13T22:51:49.753Z,6.53
2018-08-13T22:54:18.197Z,4.30
2018-08-13T22:56:46.654Z,11.80
2018-08-13T22:59:15.112Z,6.10
2018-08-13T23:01:43.557Z,4.80
2018-08-13T23:04:12.003Z,6.17
2018-08-13T23:06:40.473Z,9.80
2018-08-13T23:09:10.573Z,6.63
2018-08-13T23:11:39.044Z,6.07
2018-08-13T23:14:07.523Z,10.67
2018-08-13T23:16:36.053Z,8.43
2018-08-13T23:19:04.610Z,9.60
2018-08-13T23:21:33.073Z,7.80
2018-08-13T23:24:01.575Z,8.30
2018-08-13T23:26:30.041Z,5.30
2018-08-13T23:28:58.536Z,5.27
2018-08-13T23:31:26.980Z,9.37
2018-08-13T23:33:55.454Z,4.73
2018-08-13T23:36:23.898Z,4.23
2018-08-13T23:38:52.361Z,8.47
2018-08-13T23:41:20.876Z,3.40
2018-08-13T23:43:49.326Z,4.03
2018-08-13T23:46:17.771Z,6.73
2018-08-13T23:48:46.261Z,7.40
2018-08-13T23:51:14.758Z,3.73
2018-08-13T23:53:43.221Z,6.73
2018-08-13T23:56:11.833Z,8.33
2018-08-13T23:58:40.337Z,10.83
